アルハンゲリスク の空港の天気 - METARとTAF

Arhangel'Sk ( ULAA / ARH ) - ロシア アルハンゲリスク
飛行場実況気象(Metar)
観測時間04/26 14:00 MSK (04/26 11:00 UTC)
風向・風速南 3m/s
視程10km以上
天気現象弱い雨
全天を覆う雲 雲底高度 640m
気温7℃
湿度76%
気圧996hPa
METARULAA 261100Z 18003MPS 150V210 9999 -RA OVC021 07/03 Q0996 R08/290060 NOSIG RMK QFE746/0995
過去の天気等 Google飛行場航空写真 Wunderground天気予報

過去48時間のMETAR

飛行場予報(TAF)
発表時間: 4/26 11:00 MSK (4/26 08:00 UTC)
予報対象時間: 26日12時 MSK ~ 27日12時 MSK
風向・風速南 5m/s
視程10km以上
全天の8割程度の雲 雲底高度 400m
26日12時 MSK ~ 26日21時 MSK に一時的に
風向・風速南東 3m/s 瞬間風速 8m/s
視程3,100m
天気現象弱いしゅう雨 もや
全天の8割程度の雲 雲底高度 210m
全天の8割程度の積乱雲 雲底高度 370m
26日21時 MSK から
風向・風速南南西 3m/s
視程6,000m
全天の8割程度の雲 雲底高度 370m
26日21時 MSK ~ 27日12時 MSK に一時的に
風向・風速西南西 6m/s
視程2,100m
天気現象弱いしゅう雨 もや
全天の8割程度の雲 雲底高度 150m
全天の8割程度の積乱雲 雲底高度 340m
TAF ULAA 260800Z 2609/2709 18005MPS 9999 BKN013
TEMPO 2609/2618 14003G08MPS 3100 -SHRA BR BKN007 BKN012CB
FM261800 20003MPS 6000 BKN012
TEMPO 2618/2709 24006MPS 2100 -SHRA BR BKN005 BKN011CB